Oesterbotten — MHYJ3 — position and weather

sailwx.info

Track history (hours):
 
Tides and Currents Weather Stations Pressure Air Temp Water Temp Dewpoint Dewpoint Depression Visibility Wind Speed Wind Dir Waves Ship Positions

Oesterbotten

Last reported at 2017-Dec-07 13:36 UTC. Time now 2017-Dec-11 15:11 UTC.
Position N 60°18' E 019°01'.

Length 110 m; draft 6.4 m.

Type: Cargo ship. MMSI: 235008920.

Date/timePositionNaut miles runAvg speedWind from/ knotsBaromVisibWave heightAir tempDewpointWater temp
2017-Dec-07 13:36N 60°18' E 019°01'110.7
2017-Dec-07 13:29N 60°17' E 019°02'510.6
2017-Dec-07 13:00N 60°12' E 019°05'510.2
2017-Dec-07 12:30N 60°08' E 019°11'510.3
2017-Dec-07 12:00N 60°04' E 019°18'  
2017-Dec-04 10:04N 55°57' E 016°27'110.2
2017-Dec-04 09:59N 55°57' E 016°26'510.4
2017-Dec-04 09:30N 55°54' E 016°18'510.5
2017-Dec-04 09:00N 55°52' E 016°10'510.5
2017-Dec-04 08:30N 55°49' E 016°02'510.5
2017-Dec-04 08:00N 55°47' E 015°54'510.5
2017-Dec-04 07:30N 55°44' E 015°46'510.5
2017-Dec-04 07:00N 55°42' E 015°38'510.6
2017-Dec-04 06:30N 55°39' E 015°30'510.4
2017-Dec-04 06:00N 55°37' E 015°21'510.4
2017-Dec-04 05:30N 55°34' E 015°13'710.6
2017-Dec-04 04:51N 55°31' E 015°03'410.6
2017-Dec-04 04:29N 55°29' E 014°57'710.6
2017-Dec-04 03:51N 55°25' E 014°47'410.4
2017-Dec-04 03:30N 55°24' E 014°41'510.1
2017-Dec-04 03:00N 55°20' E 014°35'510.1
2017-Dec-04 02:30N 55°16' E 014°30'510.3
2017-Dec-04 02:00N 55°12' E 014°24'510.5
2017-Dec-04 01:30N 55°08' E 014°18'510.5
2017-Dec-04 01:00N 55°04' E 014°13'510.1
2017-Dec-04 00:30N 55°01' E 014°05'5210.7
2017-Dec-03 19:37N 54°43' E 012°40'110.9
2017-Dec-03 19:30N 54°43' E 012°38'1411.1
2017-Dec-03 18:16N 54°35' E 012°19'310.9
2017-Dec-03 18:00N 54°32' E 012°17'611.2
2017-Dec-03 17:30N 54°27' E 012°13'2410.3
2017-Dec-03 15:08N 54°29' E 011°31'111.2
2017-Dec-03 15:00N 54°30' E 011°29'611.4
2017-Dec-03 14:30N 54°32' E 011°21'611.3
2017-Dec-03 14:00N 54°35' E 011°12'510.9
2017-Dec-03 13:30N 54°35' E 011°02'611.5
2017-Dec-03 13:00N 54°35' E 010°52'611.3
2017-Dec-03 12:30N 54°34' E 010°43'611.0
2017-Dec-03 12:00N 54°33' E 010°33'28 7.0
2017-Dec-03 08:04N 54°22' E 009°50'1 8.3
2017-Dec-03 07:56N 54°22' E 009°48'4 8.3
2017-Dec-03 07:30N 54°20' E 009°43'4 7.2
2017-Dec-03 07:00N 54°17' E 009°39'4 7.9
2017-Dec-03 06:30N 54°14' E 009°36'4 8.3
2017-Dec-03 06:00N 54°11' E 009°30'4 8.6
2017-Dec-03 05:30N 54°10' E 009°24'4 7.4
2017-Dec-03 04:57N 54°06' E 009°20'3 7.9
2017-Dec-03 04:30N 54°03' E 009°18'0 0.2
2017-Dec-03 04:00N 54°03' E 009°18'0 0.2
2017-Dec-03 03:30N 54°02' E 009°18'3 5.9
2017-Dec-03 03:00N 53°60' E 009°17'4 8.3
2017-Dec-03 02:30N 53°56' E 009°13'4 7.2
2017-Dec-03 02:00N 53°54' E 009°09'0 0.2
2017-Dec-03 01:30N 53°54' E 009°09'0 0.0
2017-Dec-03 01:00N 53°54' E 009°09'1 1.4
2017-Dec-03 00:30N 53°53' E 009°08'2 4.7
2017-Dec-03 00:00N 53°52' E 009°04'612.6
2017-Dec-02 23:30N 53°51' E 008°54'611.9
2017-Dec-02 23:00N 53°52' E 008°44'612.1
2017-Dec-02 22:31N 53°57' E 008°38'612.4
2017-Dec-02 22:00N 53°59' E 008°28'612.4
2017-Dec-02 21:30N 53°59' E 008°18'611.6
2017-Dec-02 21:00N 53°59' E 008°08'611.4
2017-Dec-02 20:30N 53°58' E 007°58'611.6
2017-Dec-02 20:00N 53°57' E 007°49'711.9
2017-Dec-02 19:24N 53°55' E 007°37'7810.7
2017-Dec-02 12:09N 53°34' E 005°30'2 9.6
2017-Dec-02 11:57N 53°34' E 005°27'6 9.4
2017-Dec-02 11:21N 53°32' E 005°18'3 9.4
2017-Dec-02 11:00N 53°31' E 005°13'5 9.4
2017-Dec-02 10:30N 53°29' E 005°05'5 9.7
2017-Dec-02 10:00N 53°28' E 004°58'5 9.7
2017-Dec-02 09:30N 53°26' E 004°50'5 9.6
2017-Dec-02 09:00N 53°23' E 004°43'5 9.3
2017-Dec-02 08:29N 53°19' E 004°39'4 9.4
2017-Dec-02 08:00N 53°15' E 004°36'5 9.4
2017-Dec-02 07:30N 53°11' E 004°32'5 9.5
2017-Dec-02 06:59N 53°07' E 004°28'5 9.7
2017-Dec-02 06:30N 53°03' E 004°24'5 9.9
2017-Dec-02 06:00N 52°58' E 004°20'5 9.9
2017-Dec-02 05:30N 52°54' E 004°17'510.5
2017-Dec-02 05:00N 52°49' E 004°13'510.7
2017-Dec-02 04:30N 52°45' E 004°07'510.5
2017-Dec-02 04:00N 52°41' E 004°02'510.5
2017-Dec-02 03:30N 52°36' E 003°58'510.5
2017-Dec-02 02:59N 52°31' E 003°54'611.4
2017-Dec-02 02:30N 52°26' E 003°53'611.6
2017-Dec-02 02:00N 52°20' E 003°52'611.2
2017-Dec-02 01:30N 52°14' E 003°53'611.5
2017-Dec-02 01:00N 52°09' E 003°55'611.4
2017-Dec-02 00:30N 52°03' E 003°55'4 8.4
2017-Dec-02 00:00N 52°01' E 004°00'510.7
2017-Dec-01 23:30N 51°58' E 004°08'510.7
2017-Dec-01 23:00N 51°55' E 004°15'5 9.6
2017-Dec-01 22:30N 51°52' E 004°21'510.9
2017-Dec-01 22:00N 51°50' E 004°29'5 9.6
2017-Dec-01 21:30N 51°48' E 004°36'1 2.9
2017-Dec-01 21:00N 51°48' E 004°38'0 0.0
2017-Dec-01 20:30N 51°48' E 004°38'0 0.0
2017-Dec-01 19:57N 51°48' E 004°38'0 0.0
2017-Dec-01 19:30N 51°48' E 004°38'0 0.0
2017-Dec-01 19:00N 51°48' E 004°38'0 0.0
2017-Dec-01 18:30N 51°48' E 004°38'0 0.0
2017-Dec-01 18:00N 51°48' E 004°38'0 0.0
2017-Dec-01 17:27N 51°48' E 004°38'0 0.0
2017-Dec-01 17:00N 51°48' E 004°38'0 0.0
2017-Dec-01 16:30N 51°48' E 004°38'0 0.0
2017-Dec-01 16:00N 51°48' E 004°38'0 0.0
2017-Dec-01 15:30N 51°48' E 004°38'0 0.0
2017-Dec-01 15:00N 51°48' E 004°38'0 0.0
2017-Dec-01 14:30N 51°48' E 004°38'0 0.0
2017-Dec-01 14:00N 51°48' E 004°38'0 0.0
2017-Dec-01 13:30N 51°48' E 004°38'0 0.0
2017-Dec-01 13:00N 51°48' E 004°38'0 0.0
2017-Dec-01 12:30N 51°48' E 004°38'0 0.0
2017-Dec-01 12:00N 51°48' E 004°38'0 0.0
2017-Dec-01 11:30N 51°48' E 004°38'0 0.0
2017-Dec-01 11:00N 51°48' E 004°38'0 0.0
2017-Dec-01 10:30N 51°48' E 004°38'0 0.0
2017-Dec-01 09:57N 51°48' E 004°38'0 0.0
2017-Dec-01 09:30N 51°48' E 004°38'0 0.0
2017-Dec-01 09:00N 51°48' E 004°38'0 0.0
2017-Dec-01 08:30N 51°48' E 004°38'0 0.0
2017-Dec-01 08:00N 51°48' E 004°38'0 0.0
2017-Dec-01 07:30N 51°48' E 004°38'0 0.0
2017-Dec-01 07:00N 51°48' E 004°38'0 0.0
2017-Dec-01 06:30N 51°48' E 004°38'0 0.0
2017-Dec-01 05:57N 51°48' E 004°38'0 0.0
2017-Dec-01 05:30N 51°48' E 004°38'0 0.0
2017-Dec-01 05:00N 51°48' E 004°38'0 0.0
2017-Dec-01 04:30N 51°48' E 004°38'0 0.0
2017-Dec-01 04:00N 51°48' E 004°38'0 0.0
2017-Dec-01 03:30N 51°48' E 004°38'0 0.0
2017-Dec-01 03:00N 51°48' E 004°38'0 0.0
2017-Dec-01 02:30N 51°48' E 004°38'0 0.0
2017-Dec-01 02:00N 51°48' E 004°38'0 0.0
2017-Dec-01 01:30N 51°48' E 004°38'0 0.0
2017-Dec-01 01:00N 51°48' E 004°38'0 0.0
2017-Dec-01 00:30N 51°48' E 004°38'0 0.0
2017-Dec-01 00:00N 51°48' E 004°38'0 0.0
2017-Nov-30 23:30N 51°48' E 004°38'0 0.0
2017-Nov-30 23:00N 51°48' E 004°38'0 0.0
2017-Nov-30 22:30N 51°48' E 004°38'0 0.0
2017-Nov-30 22:00N 51°48' E 004°38'0 0.0
2017-Nov-30 21:30N 51°48' E 004°38'0 0.0
2017-Nov-30 21:00N 51°48' E 004°38'0 0.0
2017-Nov-30 20:30N 51°48' E 004°38'0 0.0
2017-Nov-30 20:00N 51°48' E 004°38'0 0.0
2017-Nov-30 19:30N 51°48' E 004°38'0 0.0
2017-Nov-30 19:00N 51°48' E 004°38'0 0.0
2017-Nov-30 18:30N 51°48' E 004°38'0 0.0
2017-Nov-30 18:00N 51°48' E 004°38'0 0.0
2017-Nov-30 17:30N 51°48' E 004°38'0 0.0
2017-Nov-30 17:00N 51°48' E 004°38'0 0.0
2017-Nov-30 16:30N 51°48' E 004°38'0 0.0
2017-Nov-30 16:00N 51°48' E 004°38'0 0.0
2017-Nov-30 15:30N 51°48' E 004°38'0 0.0
2017-Nov-30 15:00N 51°48' E 004°38'0 0.0
2017-Nov-30 14:30N 51°48' E 004°38'0 0.0
2017-Nov-30 14:00N 51°48' E 004°38'0 0.0
2017-Nov-30 13:27N 51°48' E 004°38'0 0.0
2017-Nov-30 13:00N 51°48' E 004°38'0 0.0
2017-Nov-30 12:30N 51°48' E 004°38'0 0.0
2017-Nov-30 12:00N 51°48' E 004°38'0 0.0
2017-Nov-30 11:30N 51°48' E 004°38'0 0.0
2017-Nov-30 11:00N 51°48' E 004°38'0 0.0
2017-Nov-30 10:30N 51°48' E 004°38'0 0.0
2017-Nov-30 09:57N 51°48' E 004°38'0 0.0
2017-Nov-30 09:30N 51°48' E 004°38'0 0.0
2017-Nov-30 09:00N 51°48' E 004°38'0 0.0
2017-Nov-30 08:30N 51°48' E 004°38'0 0.0
2017-Nov-30 08:00N 51°48' E 004°38'0 0.0
2017-Nov-30 07:30N 51°48' E 004°38'0 0.0
2017-Nov-30 07:00N 51°48' E 004°38'0 0.0
2017-Nov-30 06:30N 51°48' E 004°38'0 0.0
2017-Nov-30 06:00N 51°48' E 004°38'0 0.0
2017-Nov-30 05:30N 51°48' E 004°38'0 0.0
2017-Nov-30 05:00N 51°48' E 004°38'0 0.0
2017-Nov-30 04:30N 51°48' E 004°38'1 1.7
2017-Nov-30 04:00N 51°48' E 004°37'3 6.0
2017-Nov-30 03:31N 51°50' E 004°33'4 9.0
2017-Nov-30 03:01N 51°50' E 004°26'5 9.0
2017-Nov-30 02:30N 51°53' E 004°20'4 8.2
2017-Nov-30 02:01N 51°55' E 004°14'5 9.3
2017-Nov-30 01:30N 51°58' E 004°09'5 9.8
2017-Nov-30 01:01N 51°60' E 004°01'611.0
2017-Nov-30 00:30N 52°00' E 003°52'4 6.8
2017-Nov-29 23:59N 51°58' E 003°47'2 1.2
2017-Nov-29 21:59N 51°56' E 003°47'0 0.1
2017-Nov-29 20:53N 51°56' E 003°47'0 0.3
2017-Nov-29 20:29N 51°56' E 003°47'0 0.1
2017-Nov-29 19:47N 51°56' E 003°47'0 0.1
2017-Nov-29 19:29N 51°56' E 003°47'0 0.0
2017-Nov-29 18:56N 51°56' E 003°47'0 0.1
2017-Nov-29 18:26N 51°56' E 003°47'0 0.0
2017-Nov-29 17:59N 51°56' E 003°47'0 0.0
2017-Nov-29 17:23N 51°56' E 003°47'0 0.0
2017-Nov-29 16:38N 51°56' E 003°47'0 0.1
2017-Nov-29 16:26N 51°56' E 003°47'0 0.0
2017-Nov-29 15:59N 51°56' E 003°47'0 0.0
2017-Nov-29 15:29N 51°56' E 003°47'0 0.0
2017-Nov-29 14:50N 51°56' E 003°47'0 0.1
2017-Nov-29 14:26N 51°56' E 003°47'2 5.3
2017-Nov-29 14:00N 51°56' E 003°43'4910.2
2017-Nov-29 09:13N 51°40' E 002°29'510.6
2017-Nov-29 08:42N 51°36' E 002°23'510.3
2017-Nov-29 08:13N 51°32' E 002°18'510.2
2017-Nov-29 07:43N 51°28' E 002°13'2 9.8
2017-Nov-29 07:30N 51°25' E 002°12'5 9.7
2017-Nov-29 07:00N 51°21' E 002°09'5 9.5
2017-Nov-29 06:30N 51°16' E 002°07'5 9.2
2017-Nov-29 06:00N 51°13' E 002°02'5 9.5
2017-Nov-29 05:30N 51°10' E 001°56'5 9.1
2017-Nov-29 05:00N 51°08' E 001°50'4 8.6
2017-Nov-29 04:30N 51°05' E 001°45'4 8.3
2017-Nov-29 04:00N 51°02' E 001°40'4 8.0
2017-Nov-29 03:30N 50°59' E 001°36'4 7.9
2017-Nov-29 03:00N 50°56' E 001°31'4 7.6
2017-Nov-29 02:30N 50°53' E 001°29'65 8.8
2017-Nov-28 19:09N 50°19' E 000°02'1210.4
2017-Nov-28 18:02N 50°16' W 000°16'010.6
2017-Nov-28 18:00N 50°16' W 000°17'2911.5
2017-Nov-28 15:31N 50°08' W 000°60'812.2
2017-Nov-28 14:51N 50°06' W 001°12'412.1
2017-Nov-28 14:30N 50°05' W 001°18'612.1
2017-Nov-28 14:00N 50°04' W 001°27'611.8
2017-Nov-28 13:31N 50°02' W 001°36'611.4
2017-Nov-28 13:00N 50°01' W 001°45'611.1
2017-Nov-28 12:30N 49°59' W 001°53'610.7
2017-Nov-28 11:54N 49°58' W 002°03'410.1
2017-Nov-28 11:30N 49°57' W 002°09'10 9.6
2017-Nov-28 10:30N 49°54' W 002°23'6 9.4
2017-Nov-28 09:54N 49°53' W 002°32'5 9.3
2017-Nov-28 09:25N 49°52' W 002°39'5 9.3
2017-Nov-28 08:54N 49°50' W 002°46'  
Track history (hours):
 
Tides and Currents Weather Stations Pressure Air Temp Water Temp Dewpoint Dewpoint Depression Visibility Wind Speed Wind Dir Waves Ship Positions

Oesterbotten

Last reported at 2017-Dec-07 13:36 UTC. Time now 2017-Dec-11 15:11 UTC.
Position N 60°18' E 019°01'.

Length 110 m; draft 6.4 m.

Type: Cargo ship. MMSI: 235008920.

Date/timePositionNaut miles runAvg speedWind from/ knotsBaromVisibWave heightAir tempDewpointWater temp
2017-Dec-07 13:36N 60°18' E 019°01'110.7
2017-Dec-07 13:29N 60°17' E 019°02'510.6
2017-Dec-07 13:00N 60°12' E 019°05'510.2
2017-Dec-07 12:30N 60°08' E 019°11'510.3
2017-Dec-07 12:00N 60°04' E 019°18'  
2017-Dec-04 10:04N 55°57' E 016°27'110.2
2017-Dec-04 09:59N 55°57' E 016°26'510.4
2017-Dec-04 09:30N 55°54' E 016°18'510.5
2017-Dec-04 09:00N 55°52' E 016°10'510.5
2017-Dec-04 08:30N 55°49' E 016°02'510.5
2017-Dec-04 08:00N 55°47' E 015°54'510.5
2017-Dec-04 07:30N 55°44' E 015°46'510.5
2017-Dec-04 07:00N 55°42' E 015°38'510.6
2017-Dec-04 06:30N 55°39' E 015°30'510.4
2017-Dec-04 06:00N 55°37' E 015°21'510.4
2017-Dec-04 05:30N 55°34' E 015°13'710.6
2017-Dec-04 04:51N 55°31' E 015°03'410.6
2017-Dec-04 04:29N 55°29' E 014°57'710.6
2017-Dec-04 03:51N 55°25' E 014°47'410.4
2017-Dec-04 03:30N 55°24' E 014°41'510.1
2017-Dec-04 03:00N 55°20' E 014°35'510.1
2017-Dec-04 02:30N 55°16' E 014°30'510.3
2017-Dec-04 02:00N 55°12' E 014°24'510.5
2017-Dec-04 01:30N 55°08' E 014°18'510.5
2017-Dec-04 01:00N 55°04' E 014°13'510.1
2017-Dec-04 00:30N 55°01' E 014°05'5210.7
2017-Dec-03 19:37N 54°43' E 012°40'110.9
2017-Dec-03 19:30N 54°43' E 012°38'1411.1
2017-Dec-03 18:16N 54°35' E 012°19'310.9
2017-Dec-03 18:00N 54°32' E 012°17'611.2
2017-Dec-03 17:30N 54°27' E 012°13'2410.3
2017-Dec-03 15:08N 54°29' E 011°31'111.2
2017-Dec-03 15:00N 54°30' E 011°29'611.4
2017-Dec-03 14:30N 54°32' E 011°21'611.3
2017-Dec-03 14:00N 54°35' E 011°12'510.9
2017-Dec-03 13:30N 54°35' E 011°02'611.5
2017-Dec-03 13:00N 54°35' E 010°52'611.3
2017-Dec-03 12:30N 54°34' E 010°43'611.0
2017-Dec-03 12:00N 54°33' E 010°33'28 7.0
2017-Dec-03 08:04N 54°22' E 009°50'1 8.3
2017-Dec-03 07:56N 54°22' E 009°48'4 8.3
2017-Dec-03 07:30N 54°20' E 009°43'4 7.2
2017-Dec-03 07:00N 54°17' E 009°39'4 7.9
2017-Dec-03 06:30N 54°14' E 009°36'4 8.3
2017-Dec-03 06:00N 54°11' E 009°30'4 8.6
2017-Dec-03 05:30N 54°10' E 009°24'4 7.4
2017-Dec-03 04:57N 54°06' E 009°20'3 7.9
2017-Dec-03 04:30N 54°03' E 009°18'0 0.2
2017-Dec-03 04:00N 54°03' E 009°18'0 0.2
2017-Dec-03 03:30N 54°02' E 009°18'3 5.9
2017-Dec-03 03:00N 53°60' E 009°17'4 8.3
2017-Dec-03 02:30N 53°56' E 009°13'4 7.2
2017-Dec-03 02:00N 53°54' E 009°09'0 0.2
2017-Dec-03 01:30N 53°54' E 009°09'0 0.0
2017-Dec-03 01:00N 53°54' E 009°09'1 1.4
2017-Dec-03 00:30N 53°53' E 009°08'2 4.7
2017-Dec-03 00:00N 53°52' E 009°04'612.6
2017-Dec-02 23:30N 53°51' E 008°54'611.9
2017-Dec-02 23:00N 53°52' E 008°44'612.1
2017-Dec-02 22:31N 53°57' E 008°38'612.4
2017-Dec-02 22:00N 53°59' E 008°28'612.4
2017-Dec-02 21:30N 53°59' E 008°18'611.6
2017-Dec-02 21:00N 53°59' E 008°08'611.4
2017-Dec-02 20:30N 53°58' E 007°58'611.6
2017-Dec-02 20:00N 53°57' E 007°49'711.9
2017-Dec-02 19:24N 53°55' E 007°37'7810.7
2017-Dec-02 12:09N 53°34' E 005°30'2 9.6
2017-Dec-02 11:57N 53°34' E 005°27'6 9.4
2017-Dec-02 11:21N 53°32' E 005°18'3 9.4
2017-Dec-02 11:00N 53°31' E 005°13'5 9.4
2017-Dec-02 10:30N 53°29' E 005°05'5 9.7
2017-Dec-02 10:00N 53°28' E 004°58'5 9.7
2017-Dec-02 09:30N 53°26' E 004°50'5 9.6
2017-Dec-02 09:00N 53°23' E 004°43'5 9.3
2017-Dec-02 08:29N 53°19' E 004°39'4 9.4
2017-Dec-02 08:00N 53°15' E 004°36'5 9.4
2017-Dec-02 07:30N 53°11' E 004°32'5 9.5
2017-Dec-02 06:59N 53°07' E 004°28'5 9.7
2017-Dec-02 06:30N 53°03' E 004°24'5 9.9
2017-Dec-02 06:00N 52°58' E 004°20'5 9.9
2017-Dec-02 05:30N 52°54' E 004°17'510.5
2017-Dec-02 05:00N 52°49' E 004°13'510.7
2017-Dec-02 04:30N 52°45' E 004°07'510.5
2017-Dec-02 04:00N 52°41' E 004°02'510.5
2017-Dec-02 03:30N 52°36' E 003°58'510.5
2017-Dec-02 02:59N 52°31' E 003°54'611.4
2017-Dec-02 02:30N 52°26' E 003°53'611.6
2017-Dec-02 02:00N 52°20' E 003°52'611.2
2017-Dec-02 01:30N 52°14' E 003°53'611.5
2017-Dec-02 01:00N 52°09' E 003°55'611.4
2017-Dec-02 00:30N 52°03' E 003°55'4 8.4
2017-Dec-02 00:00N 52°01' E 004°00'510.7
2017-Dec-01 23:30N 51°58' E 004°08'510.7
2017-Dec-01 23:00N 51°55' E 004°15'5 9.6
2017-Dec-01 22:30N 51°52' E 004°21'510.9
2017-Dec-01 22:00N 51°50' E 004°29'5 9.6
2017-Dec-01 21:30N 51°48' E 004°36'1 2.9
2017-Dec-01 21:00N 51°48' E 004°38'0 0.0
2017-Dec-01 20:30N 51°48' E 004°38'0 0.0
2017-Dec-01 19:57N 51°48' E 004°38'0 0.0
2017-Dec-01 19:30N 51°48' E 004°38'0 0.0
2017-Dec-01 19:00N 51°48' E 004°38'0 0.0
2017-Dec-01 18:30N 51°48' E 004°38'0 0.0
2017-Dec-01 18:00N 51°48' E 004°38'0 0.0
2017-Dec-01 17:27N 51°48' E 004°38'0 0.0
2017-Dec-01 17:00N 51°48' E 004°38'0 0.0
2017-Dec-01 16:30N 51°48' E 004°38'0 0.0
2017-Dec-01 16:00N 51°48' E 004°38'0 0.0
2017-Dec-01 15:30N 51°48' E 004°38'0 0.0
2017-Dec-01 15:00N 51°48' E 004°38'0 0.0
2017-Dec-01 14:30N 51°48' E 004°38'0 0.0
2017-Dec-01 14:00N 51°48' E 004°38'0 0.0
2017-Dec-01 13:30N 51°48' E 004°38'0 0.0
2017-Dec-01 13:00N 51°48' E 004°38'0 0.0
2017-Dec-01 12:30N 51°48' E 004°38'0 0.0
2017-Dec-01 12:00N 51°48' E 004°38'0 0.0
2017-Dec-01 11:30N 51°48' E 004°38'0 0.0
2017-Dec-01 11:00N 51°48' E 004°38'0 0.0
2017-Dec-01 10:30N 51°48' E 004°38'0 0.0
2017-Dec-01 09:57N 51°48' E 004°38'0 0.0
2017-Dec-01 09:30N 51°48' E 004°38'0 0.0
2017-Dec-01 09:00N 51°48' E 004°38'0 0.0
2017-Dec-01 08:30N 51°48' E 004°38'0 0.0
2017-Dec-01 08:00N 51°48' E 004°38'0 0.0
2017-Dec-01 07:30N 51°48' E 004°38'0 0.0
2017-Dec-01 07:00N 51°48' E 004°38'0 0.0
2017-Dec-01 06:30N 51°48' E 004°38'0 0.0
2017-Dec-01 05:57N 51°48' E 004°38'0 0.0
2017-Dec-01 05:30N 51°48' E 004°38'0 0.0
2017-Dec-01 05:00N 51°48' E 004°38'0 0.0
2017-Dec-01 04:30N 51°48' E 004°38'0 0.0
2017-Dec-01 04:00N 51°48' E 004°38'0 0.0
2017-Dec-01 03:30N 51°48' E 004°38'0 0.0
2017-Dec-01 03:00N 51°48' E 004°38'0 0.0
2017-Dec-01 02:30N 51°48' E 004°38'0 0.0
2017-Dec-01 02:00N 51°48' E 004°38'0 0.0
2017-Dec-01 01:30N 51°48' E 004°38'0 0.0
2017-Dec-01 01:00N 51°48' E 004°38'0 0.0
2017-Dec-01 00:30N 51°48' E 004°38'0 0.0
2017-Dec-01 00:00N 51°48' E 004°38'0 0.0
2017-Nov-30 23:30N 51°48' E 004°38'0 0.0
2017-Nov-30 23:00N 51°48' E 004°38'0 0.0
2017-Nov-30 22:30N 51°48' E 004°38'0 0.0
2017-Nov-30 22:00N 51°48' E 004°38'0 0.0
2017-Nov-30 21:30N 51°48' E 004°38'0 0.0
2017-Nov-30 21:00N 51°48' E 004°38'0 0.0
2017-Nov-30 20:30N 51°48' E 004°38'0 0.0
2017-Nov-30 20:00N 51°48' E 004°38'0 0.0
2017-Nov-30 19:30N 51°48' E 004°38'0 0.0
2017-Nov-30 19:00N 51°48' E 004°38'0 0.0
2017-Nov-30 18:30N 51°48' E 004°38'0 0.0
2017-Nov-30 18:00N 51°48' E 004°38'0 0.0
2017-Nov-30 17:30N 51°48' E 004°38'0 0.0
2017-Nov-30 17:00N 51°48' E 004°38'0 0.0
2017-Nov-30 16:30N 51°48' E 004°38'0 0.0
2017-Nov-30 16:00N 51°48' E 004°38'0 0.0
2017-Nov-30 15:30N 51°48' E 004°38'0 0.0
2017-Nov-30 15:00N 51°48' E 004°38'0 0.0
2017-Nov-30 14:30N 51°48' E 004°38'0 0.0
2017-Nov-30 14:00N 51°48' E 004°38'0 0.0
2017-Nov-30 13:27N 51°48' E 004°38'0 0.0
2017-Nov-30 13:00N 51°48' E 004°38'0 0.0
2017-Nov-30 12:30N 51°48' E 004°38'0 0.0
2017-Nov-30 12:00N 51°48' E 004°38'0 0.0
2017-Nov-30 11:30N 51°48' E 004°38'0 0.0
2017-Nov-30 11:00N 51°48' E 004°38'0 0.0
2017-Nov-30 10:30N 51°48' E 004°38'0 0.0
2017-Nov-30 09:57N 51°48' E 004°38'0 0.0
2017-Nov-30 09:30N 51°48' E 004°38'0 0.0
2017-Nov-30 09:00N 51°48' E 004°38'0 0.0
2017-Nov-30 08:30N 51°48' E 004°38'0 0.0
2017-Nov-30 08:00N 51°48' E 004°38'0 0.0
2017-Nov-30 07:30N 51°48' E 004°38'0 0.0
2017-Nov-30 07:00N 51°48' E 004°38'0 0.0
2017-Nov-30 06:30N 51°48' E 004°38'0 0.0
2017-Nov-30 06:00N 51°48' E 004°38'0 0.0
2017-Nov-30 05:30N 51°48' E 004°38'0 0.0
2017-Nov-30 05:00N 51°48' E 004°38'0 0.0
2017-Nov-30 04:30N 51°48' E 004°38'1 1.7
2017-Nov-30 04:00N 51°48' E 004°37'3 6.0
2017-Nov-30 03:31N 51°50' E 004°33'4 9.0
2017-Nov-30 03:01N 51°50' E 004°26'5 9.0
2017-Nov-30 02:30N 51°53' E 004°20'4 8.2
2017-Nov-30 02:01N 51°55' E 004°14'5 9.3
2017-Nov-30 01:30N 51°58' E 004°09'5 9.8
2017-Nov-30 01:01N 51°60' E 004°01'611.0
2017-Nov-30 00:30N 52°00' E 003°52'4 6.8
2017-Nov-29 23:59N 51°58' E 003°47'2 1.2
2017-Nov-29 21:59N 51°56' E 003°47'0 0.1
2017-Nov-29 20:53N 51°56' E 003°47'0 0.3
2017-Nov-29 20:29N 51°56' E 003°47'0 0.1
2017-Nov-29 19:47N 51°56' E 003°47'0 0.1
2017-Nov-29 19:29N 51°56' E 003°47'0 0.0
2017-Nov-29 18:56N 51°56' E 003°47'0 0.1
2017-Nov-29 18:26N 51°56' E 003°47'0 0.0
2017-Nov-29 17:59N 51°56' E 003°47'0 0.0
2017-Nov-29 17:23N 51°56' E 003°47'0 0.0
2017-Nov-29 16:38N 51°56' E 003°47'0 0.1
2017-Nov-29 16:26N 51°56' E 003°47'0 0.0
2017-Nov-29 15:59N 51°56' E 003°47'0 0.0
2017-Nov-29 15:29N 51°56' E 003°47'0 0.0
2017-Nov-29 14:50N 51°56' E 003°47'0 0.1
2017-Nov-29 14:26N 51°56' E 003°47'2 5.3
2017-Nov-29 14:00N 51°56' E 003°43'4910.2
2017-Nov-29 09:13N 51°40' E 002°29'510.6
2017-Nov-29 08:42N 51°36' E 002°23'510.3
2017-Nov-29 08:13N 51°32' E 002°18'510.2
2017-Nov-29 07:43N 51°28' E 002°13'2 9.8
2017-Nov-29 07:30N 51°25' E 002°12'5 9.7
2017-Nov-29 07:00N 51°21' E 002°09'5 9.5
2017-Nov-29 06:30N 51°16' E 002°07'5 9.2
2017-Nov-29 06:00N 51°13' E 002°02'5 9.5
2017-Nov-29 05:30N 51°10' E 001°56'5 9.1
2017-Nov-29 05:00N 51°08' E 001°50'4 8.6
2017-Nov-29 04:30N 51°05' E 001°45'4 8.3
2017-Nov-29 04:00N 51°02' E 001°40'4 8.0
2017-Nov-29 03:30N 50°59' E 001°36'4 7.9
2017-Nov-29 03:00N 50°56' E 001°31'4 7.6
2017-Nov-29 02:30N 50°53' E 001°29'65 8.8
2017-Nov-28 19:09N 50°19' E 000°02'1210.4
2017-Nov-28 18:02N 50°16' W 000°16'010.6
2017-Nov-28 18:00N 50°16' W 000°17'2911.5
2017-Nov-28 15:31N 50°08' W 000°60'812.2
2017-Nov-28 14:51N 50°06' W 001°12'412.1
2017-Nov-28 14:30N 50°05' W 001°18'612.1
2017-Nov-28 14:00N 50°04' W 001°27'611.8
2017-Nov-28 13:31N 50°02' W 001°36'611.4
2017-Nov-28 13:00N 50°01' W 001°45'611.1
2017-Nov-28 12:30N 49°59' W 001°53'610.7
2017-Nov-28 11:54N 49°58' W 002°03'410.1
2017-Nov-28 11:30N 49°57' W 002°09'10 9.6
2017-Nov-28 10:30N 49°54' W 002°23'6 9.4
2017-Nov-28 09:54N 49°53' W 002°32'5 9.3
2017-Nov-28 09:25N 49°52' W 002°39'5 9.3
2017-Nov-28 08:54N 49°50' W 002°46'  

Dump ship's entire track history